createdAt,value
2023-05-07T00:00:06.403Z,4.25
2023-05-07T00:13:06.452Z,4.20
2023-05-07T00:26:06.437Z,4.30
2023-05-07T00:39:06.426Z,3.70
2023-05-07T00:52:06.436Z,3.70
2023-05-07T01:05:06.487Z,3.75
2023-05-07T01:18:06.532Z,3.80
2023-05-07T01:31:06.529Z,3.60
2023-05-07T01:44:06.571Z,3.60
2023-05-07T01:57:06.576Z,3.60
2023-05-07T02:10:06.591Z,3.30
2023-05-07T02:23:06.684Z,3.30
2023-05-07T02:36:06.687Z,3.30
2023-05-07T02:49:06.723Z,3.10
2023-05-07T03:02:06.741Z,3.00
2023-05-07T03:15:06.762Z,3.25
2023-05-07T03:28:06.751Z,3.20
2023-05-07T03:41:06.805Z,3.10
2023-05-07T03:55:06.812Z,3.10
2023-05-07T04:09:06.792Z,3.10
2023-05-07T04:24:06.822Z,2.90
2023-05-07T04:38:06.854Z,3.10
2023-05-07T04:52:06.899Z,2.70
2023-05-07T05:06:06.895Z,2.90
2023-05-07T05:20:06.917Z,2.90
2023-05-07T05:34:06.910Z,2.90
2023-05-07T05:48:06.920Z,2.80
2023-05-07T06:02:06.970Z,2.60
2023-05-07T06:16:07.061Z,2.40
2023-05-07T06:30:06.994Z,2.70
2023-05-07T06:43:06.997Z,2.90
2023-05-07T06:54:06.998Z,4.10
2023-05-07T07:05:07.120Z,3.40
2023-05-07T07:16:07.043Z,3.90
2023-05-07T07:30:07.054Z,3.70
2023-05-07T07:44:07.103Z,4.40
2023-05-07T07:57:07.109Z,10.00
2023-05-07T08:08:07.133Z,10.05
2023-05-07T08:19:07.130Z,10.40
2023-05-07T08:30:07.159Z,10.60
2023-05-07T08:41:07.186Z,9.80
2023-05-07T08:52:09.302Z,9.60
2023-05-07T09:03:07.324Z,9.20
2023-05-07T09:14:08.251Z,9.00
2023-05-07T09:25:07.226Z,8.50
2023-05-07T09:39:07.259Z,8.40
2023-05-07T09:53:07.291Z,8.30
2023-05-07T10:04:07.289Z,7.70
2023-05-07T10:18:07.358Z,7.30
2023-05-07T10:29:07.299Z,6.80
2023-05-07T10:43:10.152Z,6.40
2023-05-07T10:57:07.326Z,6.85
2023-05-07T11:11:07.353Z,5.80
2023-05-07T11:25:07.369Z,5.50
2023-05-07T11:39:07.403Z,5.50
2023-05-07T11:53:07.450Z,4.95
2023-05-07T12:07:07.434Z,4.70
2023-05-07T12:21:07.443Z,4.90
2023-05-07T12:35:07.495Z,5.40
2023-05-07T12:49:07.497Z,4.50
2023-05-07T13:03:07.560Z,4.30
2023-05-07T13:17:07.535Z,5.00
2023-05-07T13:31:07.555Z,5.30
2023-05-07T13:45:07.624Z,5.80
2023-05-07T13:59:07.639Z,5.60
2023-05-07T14:13:07.683Z,6.00
2023-05-07T14:27:07.645Z,6.40
2023-05-07T14:38:07.682Z,6.70
2023-05-07T14:52:07.750Z,6.20
2023-05-07T15:03:07.902Z,6.20
2023-05-07T15:14:07.855Z,5.90
2023-05-07T15:25:07.770Z,5.30
2023-05-07T15:36:07.786Z,5.20
2023-05-07T15:47:07.774Z,5.00
2023-05-07T16:01:07.919Z,5.00
2023-05-07T16:15:07.889Z,4.80
2023-05-07T16:29:07.916Z,4.90
2023-05-07T16:43:07.903Z,5.10
2023-05-07T16:57:07.936Z,5.50
2023-05-07T17:11:07.944Z,6.10
2023-05-07T17:25:07.963Z,6.60
2023-05-07T17:39:08.018Z,6.80
2023-05-07T17:53:08.021Z,6.90
2023-05-07T18:07:08.017Z,7.30
2023-05-07T18:21:08.093Z,7.00
2023-05-07T18:35:08.103Z,7.20
2023-05-07T18:49:08.102Z,6.70
2023-05-07T19:02:08.118Z,7.10
2023-05-07T19:15:08.140Z,7.20
2023-05-07T19:28:08.175Z,6.80
2023-05-07T19:41:08.234Z,6.50
2023-05-07T19:54:08.259Z,6.45
2023-05-07T20:07:08.260Z,6.60
2023-05-07T20:20:08.299Z,6.40
2023-05-07T20:33:08.404Z,6.10
2023-05-07T20:46:08.366Z,6.00
2023-05-07T20:59:08.347Z,5.55
2023-05-07T21:12:08.356Z,5.40
2023-05-07T21:25:08.397Z,5.70
2023-05-07T21:38:08.450Z,5.10
2023-05-07T21:51:08.445Z,5.20
2023-05-07T22:04:08.497Z,4.90
2023-05-07T22:17:08.484Z,4.60
2023-05-07T22:30:08.490Z,4.55
2023-05-07T22:43:08.504Z,4.40
2023-05-07T22:56:08.505Z,4.50
2023-05-07T23:09:08.541Z,4.20
2023-05-07T23:22:08.546Z,4.20
2023-05-07T23:35:08.616Z,3.90
2023-05-07T23:48:08.653Z,4.20
